createdAt,value
2023-08-14T00:01:33.870Z,24.66
2023-08-14T00:04:01.847Z,24.62
2023-08-14T00:06:29.887Z,24.60
2023-08-14T00:08:59.207Z,24.61
2023-08-14T00:11:27.147Z,24.59
2023-08-14T00:13:56.927Z,24.58
2023-08-14T00:16:26.340Z,24.57
2023-08-14T00:18:54.554Z,24.58
2023-08-14T00:21:22.689Z,24.56
2023-08-14T00:23:50.607Z,24.58
2023-08-14T00:26:19.922Z,24.57
2023-08-14T00:28:47.938Z,24.52
2023-08-14T00:31:18.130Z,24.48
2023-08-14T00:33:46.923Z,24.49
2023-08-14T00:36:15.251Z,24.46
2023-08-14T00:38:43.230Z,24.43
2023-08-14T00:41:12.173Z,24.37
2023-08-14T00:43:41.544Z,24.32
2023-08-14T00:46:10.812Z,24.24
2023-08-14T00:48:38.927Z,24.21
2023-08-14T00:51:06.179Z,24.22
2023-08-14T00:53:34.431Z,24.24
2023-08-14T00:56:04.357Z,24.23
2023-08-14T00:58:32.530Z,24.20
2023-08-14T01:01:02.293Z,24.20
2023-08-14T01:03:30.867Z,24.18
2023-08-14T01:05:59.618Z,24.16
2023-08-14T01:08:27.909Z,24.14
2023-08-14T01:11:01.736Z,24.15
2023-08-14T01:13:39.022Z,24.13
2023-08-14T01:16:11.845Z,24.07
2023-08-14T01:18:42.792Z,24.07
2023-08-14T01:21:27.153Z,24.09
2023-08-14T01:24:03.726Z,24.08
2023-08-14T01:26:33.789Z,24.10
2023-08-14T01:29:04.359Z,24.13
2023-08-14T01:31:32.724Z,24.09
2023-08-14T01:34:00.771Z,23.97
2023-08-14T01:36:35.787Z,23.92
2023-08-14T01:39:09.036Z,23.84
2023-08-14T01:41:45.538Z,23.87
2023-08-14T01:44:16.602Z,23.91
2023-08-14T01:46:48.626Z,23.94
2023-08-14T01:49:18.766Z,23.96
2023-08-14T01:51:48.628Z,23.91
2023-08-14T01:54:16.566Z,23.86
2023-08-14T01:56:46.077Z,23.84
2023-08-14T01:59:14.126Z,23.83
2023-08-14T02:01:42.203Z,23.84
2023-08-14T02:04:10.850Z,23.81
2023-08-14T02:06:38.825Z,23.80
2023-08-14T02:09:06.838Z,23.80
2023-08-14T02:11:36.790Z,23.78
2023-08-14T02:14:06.315Z,23.72
2023-08-14T02:16:34.398Z,23.72
2023-08-14T02:19:02.429Z,23.70
2023-08-14T02:21:30.408Z,23.68
2023-08-14T02:23:58.326Z,23.66
2023-08-14T02:26:26.223Z,23.63
2023-08-14T02:28:55.130Z,23.63
2023-08-14T02:31:24.482Z,23.64
2023-08-14T02:33:52.684Z,23.63
2023-08-14T02:36:20.592Z,23.63
2023-08-14T02:38:48.534Z,23.59
2023-08-14T02:41:16.495Z,23.57
2023-08-14T02:43:44.523Z,23.57
2023-08-14T02:46:12.602Z,23.58
2023-08-14T02:48:42.829Z,23.27
2023-08-14T02:51:10.854Z,23.08
2023-08-14T02:53:38.918Z,23.13
2023-08-14T02:56:06.942Z,23.16
2023-08-14T02:58:36.890Z,23.20
2023-08-14T03:01:06.109Z,23.22
2023-08-14T03:03:34.119Z,23.27
2023-08-14T03:06:04.092Z,23.29
2023-08-14T03:08:32.136Z,23.31
2023-08-14T03:11:00.122Z,23.30
2023-08-14T03:13:28.173Z,23.31
2023-08-14T03:15:56.151Z,23.31
2023-08-14T03:18:24.107Z,23.30
2023-08-14T03:20:52.103Z,23.30
2023-08-14T03:23:21.375Z,23.30
2023-08-14T03:25:49.479Z,23.28
2023-08-14T03:28:17.440Z,23.27
2023-08-14T03:30:46.920Z,23.29
2023-08-14T03:33:16.292Z,23.31
2023-08-14T03:35:44.248Z,23.34
2023-08-14T03:38:13.726Z,23.35
2023-08-14T03:40:43.089Z,23.24
2023-08-14T03:43:11.055Z,23.20
2023-08-14T03:45:39.019Z,23.06
2023-08-14T03:48:07.514Z,22.93
2023-08-14T03:50:35.568Z,22.92
2023-08-14T03:53:03.541Z,22.86
2023-08-14T03:55:31.480Z,22.85
2023-08-14T03:58:00.903Z,22.87
2023-08-14T04:00:28.859Z,22.90
2023-08-14T04:02:56.895Z,22.92
2023-08-14T04:05:24.936Z,22.95
2023-08-14T04:07:52.919Z,22.87
2023-08-14T04:10:20.908Z,22.73
2023-08-14T04:12:48.866Z,22.68
2023-08-14T04:15:19.330Z,22.68
2023-08-14T04:17:47.639Z,22.72
2023-08-14T04:20:15.711Z,22.78
2023-08-14T04:22:43.781Z,22.80
2023-08-14T04:25:11.730Z,22.80
2023-08-14T04:27:39.945Z,22.81
2023-08-14T04:30:09.908Z,22.81
2023-08-14T04:32:39.267Z,22.81
2023-08-14T04:35:09.242Z,22.81
2023-08-14T04:37:37.715Z,22.81
2023-08-14T04:40:07.034Z,22.85
2023-08-14T04:42:35.497Z,22.84
2023-08-14T04:45:05.500Z,22.82
2023-08-14T04:47:33.509Z,22.83
2023-08-14T04:50:04.261Z,22.83
2023-08-14T04:52:32.249Z,22.81
2023-08-14T04:55:00.285Z,22.81
2023-08-14T04:57:31.502Z,22.77
2023-08-14T04:59:59.556Z,22.69
2023-08-14T05:02:30.671Z,22.48
2023-08-14T05:04:58.687Z,22.31
2023-08-14T05:07:28.129Z,22.36
2023-08-14T05:09:56.165Z,22.26
2023-08-14T05:12:24.103Z,22.25
2023-08-14T05:14:54.701Z,22.33
2023-08-14T05:17:23.413Z,22.33
2023-08-14T05:19:52.269Z,22.40
2023-08-14T05:22:20.867Z,22.47
2023-08-14T05:24:50.521Z,22.56
2023-08-14T05:27:18.462Z,22.60
2023-08-14T05:29:48.782Z,22.64
2023-08-14T05:32:17.214Z,22.64
2023-08-14T05:34:45.348Z,22.64
2023-08-14T05:37:13.350Z,22.66
2023-08-14T05:39:41.293Z,22.66
2023-08-14T05:42:10.597Z,22.63
2023-08-14T05:44:38.538Z,22.46
2023-08-14T05:47:06.703Z,22.40
2023-08-14T05:49:34.669Z,22.43
2023-08-14T05:52:02.610Z,22.50
2023-08-14T05:54:30.576Z,22.55
2023-08-14T05:56:58.494Z,22.57
2023-08-14T05:59:27.801Z,22.65
2023-08-14T06:01:58.543Z,22.76
2023-08-14T06:04:28.679Z,22.85
2023-08-14T06:06:56.666Z,22.86
2023-08-14T06:09:24.784Z,22.81
2023-08-14T06:11:52.709Z,22.85
2023-08-14T06:14:20.723Z,22.90
2023-08-14T06:16:50.036Z,22.94
2023-08-14T06:19:18.002Z,23.06
2023-08-14T06:21:45.900Z,23.20
2023-08-14T06:24:13.826Z,23.32
2023-08-14T06:26:41.750Z,23.39
2023-08-14T06:29:09.873Z,23.43
2023-08-14T06:31:37.779Z,23.47
2023-08-14T06:34:08.158Z,23.52
2023-08-14T06:36:36.823Z,23.57
2023-08-14T06:39:06.288Z,23.63
2023-08-14T06:41:34.418Z,23.69
2023-08-14T06:44:08.002Z,23.77
2023-08-14T06:46:36.000Z,23.81
2023-08-14T06:49:03.938Z,23.79
2023-08-14T06:51:34.120Z,23.84
2023-08-14T06:54:02.171Z,23.91
2023-08-14T06:56:30.101Z,23.98
2023-08-14T06:58:58.233Z,24.05
2023-08-14T07:01:26.772Z,24.08
2023-08-14T07:03:54.862Z,24.06
2023-08-14T07:06:23.152Z,24.21
2023-08-14T07:08:52.437Z,24.40
2023-08-14T07:11:20.495Z,24.55
2023-08-14T07:13:49.016Z,24.62
2023-08-14T07:16:17.170Z,24.71
2023-08-14T07:18:45.147Z,24.80
2023-08-14T07:21:13.157Z,24.87
2023-08-14T07:23:41.075Z,24.83
2023-08-14T07:26:13.550Z,24.74
2023-08-14T07:28:42.006Z,24.73
2023-08-14T07:31:10.951Z,24.81
2023-08-14T07:33:39.067Z,24.83
2023-08-14T07:36:07.067Z,24.80
2023-08-14T07:38:35.052Z,24.72
2023-08-14T07:41:03.039Z,24.74
2023-08-14T07:43:32.350Z,24.78
2023-08-14T07:46:00.356Z,24.80
2023-08-14T07:48:28.351Z,24.74
2023-08-14T07:50:56.665Z,24.76
2023-08-14T07:53:24.770Z,24.80
2023-08-14T07:55:52.727Z,24.77
2023-08-14T07:58:20.677Z,24.80
2023-08-14T08:00:50.030Z,24.81
2023-08-14T08:03:17.941Z,24.78
2023-08-14T08:05:45.905Z,24.74
2023-08-14T08:08:13.874Z,24.76
2023-08-14T08:10:41.967Z,24.66
2023-08-14T08:13:10.510Z,24.70
2023-08-14T08:15:38.463Z,24.74
2023-08-14T08:18:07.832Z,24.68
2023-08-14T08:20:35.934Z,24.89
2023-08-14T08:23:05.164Z,25.22
2023-08-14T08:25:33.212Z,25.35
2023-08-14T08:28:01.192Z,25.46
2023-08-14T08:30:29.296Z,25.59
2023-08-14T08:33:03.138Z,25.63
2023-08-14T08:35:32.885Z,25.67
2023-08-14T08:38:00.860Z,25.72
2023-08-14T08:40:29.611Z,25.86
2023-08-14T08:42:58.367Z,25.95
2023-08-14T08:45:33.834Z,25.98
2023-08-14T08:48:02.993Z,26.07
2023-08-14T08:50:32.952Z,26.23
2023-08-14T08:53:01.417Z,26.34
2023-08-14T08:55:29.956Z,26.33
2023-08-14T08:57:59.593Z,26.29
2023-08-14T09:00:28.031Z,26.33
2023-08-14T09:02:56.263Z,26.30
2023-08-14T09:05:25.406Z,26.23
2023-08-14T09:07:54.768Z,26.26
2023-08-14T09:10:22.730Z,26.37
2023-08-14T09:12:51.143Z,26.47
2023-08-14T09:15:19.134Z,26.55
2023-08-14T09:17:47.165Z,26.69
2023-08-14T09:20:24.424Z,26.73
2023-08-14T09:23:02.601Z,26.76
2023-08-14T09:25:30.734Z,26.84
2023-08-14T09:27:59.431Z,26.90
2023-08-14T09:30:28.061Z,27.02
2023-08-14T09:32:56.845Z,27.14
2023-08-14T09:35:25.033Z,27.21
2023-08-14T09:37:53.018Z,27.32
2023-08-14T09:40:22.542Z,27.41
2023-08-14T09:42:51.630Z,27.46
2023-08-14T09:45:24.777Z,27.41
2023-08-14T09:47:53.821Z,27.30
2023-08-14T09:50:27.066Z,27.12
2023-08-14T09:52:58.244Z,27.17
2023-08-14T09:55:28.742Z,27.21
2023-08-14T09:57:57.542Z,27.19
2023-08-14T10:00:29.253Z,27.24
2023-08-14T10:03:02.126Z,27.27
2023-08-14T10:05:32.482Z,27.39
2023-08-14T10:08:00.889Z,27.58
2023-08-14T10:10:32.879Z,27.61
2023-08-14T10:13:05.950Z,27.67
2023-08-14T10:15:36.562Z,27.81
2023-08-14T10:18:11.224Z,27.95
2023-08-14T10:20:40.885Z,27.87
2023-08-14T10:23:10.540Z,27.84
2023-08-14T10:25:40.776Z,27.85
2023-08-14T10:28:09.820Z,27.89
2023-08-14T10:30:38.904Z,27.91
2023-08-14T10:33:07.848Z,28.03
2023-08-14T10:35:46.402Z,28.12
2023-08-14T10:38:18.157Z,28.15
2023-08-14T10:40:57.827Z,28.19
2023-08-14T10:43:28.392Z,28.09
2023-08-14T10:45:56.357Z,28.06
2023-08-14T10:48:24.999Z,28.07
2023-08-14T10:51:00.325Z,28.07
2023-08-14T10:53:28.393Z,28.05
2023-08-14T10:55:57.733Z,27.87
2023-08-14T10:58:48.295Z,27.81
2023-08-14T11:01:16.953Z,27.85
2023-08-14T11:04:03.765Z,27.90
2023-08-14T11:07:02.469Z,28.13
2023-08-14T11:09:34.205Z,28.17
2023-08-14T11:12:08.457Z,28.19
2023-08-14T11:14:37.964Z,28.22
2023-08-14T11:17:06.281Z,28.11
2023-08-14T11:19:36.168Z,28.09
2023-08-14T11:22:04.391Z,28.11
2023-08-14T11:24:34.357Z,28.12
2023-08-14T11:27:03.354Z,28.10
2023-08-14T11:29:33.293Z,28.12
2023-08-14T11:32:02.306Z,28.13
2023-08-14T11:34:33.360Z,28.16
2023-08-14T11:39:34.470Z,28.22
2023-08-14T11:42:03.947Z,28.16
2023-08-14T11:44:34.982Z,28.14
2023-08-14T11:47:04.282Z,28.12
2023-08-14T11:49:33.583Z,28.11
2023-08-14T11:52:04.381Z,28.13
2023-08-14T11:54:33.458Z,28.22
2023-08-14T11:57:03.766Z,28.25
2023-08-14T11:59:33.164Z,28.37
2023-08-14T12:02:02.045Z,28.67
2023-08-14T12:04:30.109Z,28.92
2023-08-14T12:06:58.050Z,29.15
2023-08-14T12:09:28.701Z,29.32
2023-08-14T12:11:56.866Z,29.49
2023-08-14T12:14:24.868Z,29.55
2023-08-14T12:16:54.238Z,29.53
2023-08-14T12:19:23.035Z,29.42
2023-08-14T12:21:58.147Z,29.27
2023-08-14T12:24:26.210Z,29.18
2023-08-14T12:26:54.724Z,29.25
2023-08-14T12:29:22.995Z,29.33
2023-08-14T12:31:51.074Z,29.53
2023-08-14T12:34:22.734Z,29.67
2023-08-14T12:36:50.814Z,29.69
2023-08-14T12:39:18.750Z,29.70
2023-08-14T12:41:46.800Z,29.84
2023-08-14T12:44:14.935Z,29.93
2023-08-14T12:46:42.941Z,29.98
2023-08-14T12:49:10.903Z,29.93
2023-08-14T12:51:42.483Z,29.74
2023-08-14T12:54:11.936Z,29.56
2023-08-14T12:56:42.094Z,29.48
2023-08-14T12:59:11.579Z,29.45
2023-08-14T13:01:40.002Z,29.51
2023-08-14T13:04:08.060Z,29.59
2023-08-14T13:06:36.403Z,29.59
2023-08-14T13:09:06.627Z,29.55
2023-08-14T13:11:34.918Z,29.51
2023-08-14T13:14:02.888Z,29.55
2023-08-14T13:16:30.911Z,29.74
2023-08-14T13:18:59.016Z,29.77
2023-08-14T13:21:27.000Z,29.93
2023-08-14T13:23:54.955Z,30.28
2023-08-14T13:26:26.926Z,30.56
2023-08-14T13:28:55.821Z,30.75
2023-08-14T13:31:23.937Z,30.93
2023-08-14T13:33:52.038Z,31.13
2023-08-14T13:36:19.980Z,31.19
2023-08-14T13:38:47.959Z,31.29
2023-08-14T13:41:15.906Z,31.43
2023-08-14T13:43:45.218Z,31.45
2023-08-14T13:46:13.296Z,31.31
2023-08-14T13:48:41.324Z,31.44
2023-08-14T13:51:09.282Z,31.68
2023-08-14T13:53:37.251Z,31.77
2023-08-14T13:56:05.379Z,31.90
2023-08-14T13:58:33.368Z,31.89
2023-08-14T14:01:03.372Z,31.77
2023-08-14T14:03:31.622Z,31.61
2023-08-14T14:05:59.729Z,31.80
2023-08-14T14:08:27.837Z,31.94
2023-08-14T14:10:55.957Z,32.23
2023-08-14T14:13:23.985Z,32.43
2023-08-14T14:15:52.065Z,32.53
2023-08-14T14:18:21.393Z,32.51
2023-08-14T14:20:50.334Z,32.61
2023-08-14T14:23:18.383Z,32.49
2023-08-14T14:25:46.309Z,32.25
2023-08-14T14:28:15.632Z,32.31
2023-08-14T14:30:43.603Z,32.39
2023-08-14T14:33:11.542Z,32.43
2023-08-14T14:35:40.844Z,32.36
2023-08-14T14:38:08.772Z,32.55
2023-08-14T14:40:36.904Z,32.72
2023-08-14T14:43:05.139Z,32.73
2023-08-14T14:45:35.093Z,32.44
2023-08-14T14:48:04.234Z,32.32
2023-08-14T14:50:32.273Z,31.94
2023-08-14T14:53:01.606Z,31.58
2023-08-14T14:55:29.547Z,31.23
2023-08-14T14:57:57.559Z,31.00
2023-08-14T15:00:27.152Z,30.77
2023-08-14T15:02:55.429Z,30.69
2023-08-14T15:07:54.329Z,30.51
2023-08-14T15:10:23.653Z,30.44
2023-08-14T15:12:53.816Z,30.37
2023-08-14T15:15:22.981Z,30.29
2023-08-14T15:17:51.034Z,30.17
2023-08-14T15:20:19.474Z,30.12
2023-08-14T15:22:47.499Z,30.08
2023-08-14T15:25:15.458Z,30.11
2023-08-14T15:27:44.815Z,30.13
2023-08-14T15:30:13.534Z,30.14
2023-08-14T15:32:41.537Z,30.12
2023-08-14T15:35:09.758Z,30.03
2023-08-14T15:37:37.928Z,30.00
2023-08-14T15:40:07.133Z,29.99
2023-08-14T15:42:35.200Z,29.94
2023-08-14T15:45:08.314Z,29.85
2023-08-14T15:47:37.130Z,29.79
2023-08-14T15:50:05.928Z,29.81
2023-08-14T15:52:33.930Z,29.82
2023-08-14T15:55:02.348Z,29.83
2023-08-14T15:57:30.384Z,29.83
2023-08-14T15:59:58.343Z,29.83
2023-08-14T16:02:27.773Z,29.85
2023-08-14T16:04:55.737Z,29.85
2023-08-14T16:07:23.697Z,29.90
2023-08-14T16:09:52.761Z,29.92
2023-08-14T16:12:20.994Z,29.90
2023-08-14T16:14:48.997Z,29.87
2023-08-14T16:17:17.208Z,29.82
2023-08-14T16:19:46.761Z,29.75
2023-08-14T16:22:14.805Z,29.70
2023-08-14T16:24:42.796Z,29.65
2023-08-14T16:27:11.319Z,29.55
2023-08-14T16:29:39.298Z,29.43
2023-08-14T16:32:07.420Z,29.38
2023-08-14T16:34:35.335Z,29.36
2023-08-14T16:37:05.805Z,29.32
2023-08-14T16:39:33.798Z,29.31
2023-08-14T16:42:01.699Z,29.31
2023-08-14T16:44:29.679Z,29.30
2023-08-14T16:46:57.620Z,29.30
2023-08-14T16:49:25.610Z,29.42
2023-08-14T16:51:53.544Z,29.54
2023-08-14T16:54:22.882Z,29.53
2023-08-14T16:56:50.834Z,29.49
2023-08-14T16:59:19.635Z,29.47
2023-08-14T17:01:47.726Z,29.49
2023-08-14T17:04:15.773Z,29.44
2023-08-14T17:06:43.766Z,29.34
2023-08-14T17:09:14.639Z,29.28
2023-08-14T17:11:44.454Z,29.24
2023-08-14T17:14:12.487Z,29.24
2023-08-14T17:16:40.661Z,29.28
2023-08-14T17:19:08.623Z,29.33
2023-08-14T17:21:36.564Z,29.31
2023-08-14T17:24:04.864Z,29.24
2023-08-14T17:26:32.854Z,29.17
2023-08-14T17:29:02.170Z,29.14
2023-08-14T17:31:30.542Z,29.03
2023-08-14T17:33:58.561Z,28.92
2023-08-14T17:36:26.519Z,28.88
2023-08-14T17:38:54.640Z,28.84
2023-08-14T17:41:22.585Z,28.78
2023-08-14T17:43:50.516Z,28.77
2023-08-14T17:46:20.692Z,28.74
2023-08-14T17:48:48.809Z,28.74
2023-08-14T17:51:16.886Z,28.74
2023-08-14T17:53:44.870Z,28.73
2023-08-14T17:56:13.199Z,28.77
2023-08-14T17:58:41.232Z,28.81
2023-08-14T18:01:09.173Z,28.77
2023-08-14T18:03:38.662Z,28.71
2023-08-14T18:06:06.772Z,28.67
2023-08-14T18:08:34.758Z,28.62
2023-08-14T18:11:03.419Z,28.56
2023-08-14T18:13:31.459Z,28.46
2023-08-14T18:16:01.278Z,28.39
2023-08-14T18:18:29.328Z,28.31
2023-08-14T18:20:58.717Z,28.25
2023-08-14T18:23:26.654Z,28.20
2023-08-14T18:25:55.632Z,28.15
2023-08-14T18:28:24.140Z,28.11
2023-08-14T18:30:52.386Z,28.05
2023-08-14T18:33:20.711Z,27.92
2023-08-14T18:35:48.644Z,27.85
2023-08-14T18:38:17.952Z,27.87
2023-08-14T18:40:46.988Z,27.87
2023-08-14T18:43:15.037Z,27.90
2023-08-14T18:45:43.043Z,27.86
2023-08-14T18:48:11.338Z,27.77
2023-08-14T18:50:39.364Z,27.71
2023-08-14T18:53:07.962Z,27.66
2023-08-14T18:55:40.425Z,27.63
2023-08-14T18:58:08.741Z,27.54
2023-08-14T19:00:37.068Z,27.51
2023-08-14T19:03:05.578Z,27.50
2023-08-14T19:05:33.573Z,27.47
2023-08-14T19:08:01.531Z,27.50
2023-08-14T19:10:29.531Z,27.55
2023-08-14T19:12:58.898Z,27.57
2023-08-14T19:15:27.801Z,27.58
2023-08-14T19:17:55.777Z,27.56
2023-08-14T19:20:23.768Z,27.52
2023-08-14T19:22:52.202Z,27.47
2023-08-14T19:25:20.174Z,27.47
2023-08-14T19:27:48.188Z,27.48
2023-08-14T19:30:17.570Z,27.48
2023-08-14T19:32:45.613Z,27.43
2023-08-14T19:35:13.571Z,27.38
2023-08-14T19:37:41.585Z,27.27
2023-08-14T19:40:12.034Z,27.20
2023-08-14T19:42:42.981Z,27.14
2023-08-14T19:45:12.187Z,27.11
2023-08-14T19:47:42.001Z,27.07
2023-08-14T19:50:10.340Z,27.04
2023-08-14T19:52:38.274Z,27.02
2023-08-14T19:55:07.263Z,26.98
2023-08-14T19:57:35.283Z,26.92
2023-08-14T20:00:06.099Z,26.91
2023-08-14T20:02:34.320Z,26.89
2023-08-14T20:05:05.836Z,26.89
2023-08-14T20:07:33.949Z,26.89
2023-08-14T20:10:01.907Z,26.92
2023-08-14T20:12:29.894Z,26.89
2023-08-14T20:14:58.922Z,26.86
2023-08-14T20:17:26.902Z,26.85
2023-08-14T20:19:55.064Z,26.80
2023-08-14T20:22:25.621Z,26.78
2023-08-14T20:24:53.765Z,26.76
2023-08-14T20:27:22.114Z,26.72
2023-08-14T20:29:50.276Z,26.69
2023-08-14T20:32:20.317Z,26.68
2023-08-14T20:34:48.356Z,26.66
2023-08-14T20:37:16.459Z,26.64
2023-08-14T20:39:47.200Z,26.61
2023-08-14T20:42:15.264Z,26.59
2023-08-14T20:44:43.235Z,26.63
2023-08-14T20:47:11.492Z,26.66
2023-08-14T20:49:39.396Z,26.67
2023-08-14T20:52:07.500Z,26.65
2023-08-14T20:54:35.571Z,26.66
2023-08-14T20:57:05.081Z,26.65
2023-08-14T20:59:33.032Z,26.60
2023-08-14T21:02:01.018Z,26.56
2023-08-14T21:04:28.978Z,26.54
2023-08-14T21:06:56.957Z,26.46
2023-08-14T21:09:24.907Z,26.44
2023-08-14T21:11:53.594Z,26.46
2023-08-14T21:14:23.025Z,26.42
2023-08-14T21:16:51.024Z,26.37
2023-08-14T21:19:19.000Z,26.33
2023-08-14T21:21:46.993Z,26.33
2023-08-14T21:24:14.996Z,26.31
2023-08-14T21:26:42.991Z,26.29
2023-08-14T21:29:10.910Z,26.28
2023-08-14T21:31:40.242Z,26.28
2023-08-14T21:34:10.738Z,26.27
2023-08-14T21:36:38.732Z,26.26
2023-08-14T21:39:06.692Z,26.21
2023-08-14T21:41:34.688Z,26.21
2023-08-14T21:44:02.694Z,26.20
2023-08-14T21:46:34.292Z,26.20
2023-08-14T21:49:05.059Z,26.19
2023-08-14T21:51:33.036Z,26.19
2023-08-14T21:54:00.992Z,26.23
2023-08-14T21:56:29.236Z,26.18
2023-08-14T21:58:57.217Z,26.19
2023-08-14T22:01:25.329Z,26.22
2023-08-14T22:03:53.307Z,26.22
2023-08-14T22:06:22.614Z,26.12
2023-08-14T22:08:50.580Z,26.08
2023-08-14T22:11:18.590Z,26.06
2023-08-14T22:13:46.579Z,26.00
2023-08-14T22:16:14.686Z,25.98
2023-08-14T22:18:42.593Z,25.95
2023-08-14T22:21:10.600Z,25.91
2023-08-14T22:23:40.005Z,25.92
2023-08-14T22:26:08.621Z,25.90
2023-08-14T22:28:36.682Z,25.88
2023-08-14T22:31:04.637Z,25.84
2023-08-14T22:33:32.665Z,25.81
2023-08-14T22:36:00.838Z,25.76
2023-08-14T22:38:29.582Z,25.71
2023-08-14T22:40:59.054Z,25.71
2023-08-14T22:43:26.969Z,25.72
2023-08-14T22:45:54.917Z,25.73
2023-08-14T22:48:23.040Z,25.74
2023-08-14T22:50:51.045Z,25.73
2023-08-14T22:53:19.801Z,25.71
2023-08-14T22:55:49.808Z,25.68
2023-08-14T22:58:19.272Z,25.66
2023-08-14T23:00:47.485Z,25.65
2023-08-14T23:03:15.460Z,25.64
2023-08-14T23:05:43.432Z,25.66
2023-08-14T23:08:11.350Z,25.68
2023-08-14T23:10:39.339Z,25.72
2023-08-14T23:13:07.319Z,25.74
2023-08-14T23:15:36.835Z,25.77
2023-08-14T23:18:05.371Z,25.72
2023-08-14T23:20:33.471Z,25.68
2023-08-14T23:23:01.421Z,25.61
2023-08-14T23:25:29.369Z,25.58
2023-08-14T23:27:57.312Z,25.57
2023-08-14T23:30:25.385Z,25.52
2023-08-14T23:32:54.680Z,25.50
2023-08-14T23:35:22.606Z,25.49
2023-08-14T23:37:52.269Z,25.49
2023-08-14T23:40:20.210Z,25.48
2023-08-14T23:42:48.140Z,25.49
2023-08-14T23:45:16.178Z,25.45
2023-08-14T23:47:44.159Z,25.38
2023-08-14T23:50:13.514Z,25.30
2023-08-14T23:52:41.424Z,25.27
2023-08-14T23:55:10.422Z,25.26
2023-08-14T23:57:38.413Z,25.22
